Аэропорт
Шымкент (UAII)

 UAII / CIT
ЗЦ Центральная Азия
Шымкент (UAII)
Шымкент (UAII)
 42.36420, 69.47890  / 1385 ft

 UAII 230030Z VRB01MPS 9999 SCT050CB OVC100 10/09 Q1013 R28/0///70 NOSIG RMK QFE722/0963

показать схемы
Название сценария Тип сценария Flight Simulator 9 Flight Simulator X Prepar3D v2 Prepar3D v3 Prepar3D v4 xPlane
Recommended scenery for FS9 бесплатный
Recommended scenery for FSX бесплатный


2019 © VATRUS division (Privacy Policy)